Time;durP1;ratioP1;P1;durP2;ratioP2;P2;SDS_P1;SDS_P2;PMS_P1;PMS_P2;Temp;Humidity;BMP_temperature;BMP_pressure;BME280_temperature;BME280_humidity;BME280_pressure;Samples;Min_cycle;Max_cycle;Signal;HPM_P1;HPM_P2
2020/12/07 00:02:04;;;;;;;23.30;14.15;;;6.40;99.90;;;;;;10445560;28;20493;-67
2020/12/07 00:07:06;;;;;;;26.35;15.23;;;6.40;99.90;;;;;;10452045;28;20132;-67
2020/12/07 00:12:07;;;;;;;18.55;11.88;;;6.50;99.90;;;;;;10450474;28;20056;-67
2020/12/07 00:17:09;;;;;;;14.95;10.55;;;6.50;99.90;;;;;;10450969;28;20135;-67
2020/12/07 00:22:10;;;;;;;31.23;17.25;;;6.50;99.90;;;;;;10437885;28;20077;-67
2020/12/07 00:27:12;;;;;;;40.95;19.77;;;6.60;99.90;;;;;;10450483;28;20119;-67
2020/12/07 00:32:13;;;;;;;69.43;33.10;;;6.60;99.90;;;;;;10449541;28;20137;-67
2020/12/07 00:37:15;;;;;;;59.63;28.13;;;6.60;99.90;;;;;;10465939;28;20080;-67
2020/12/07 00:42:17;;;;;;;174.98;65.32;;;6.60;99.90;;;;;;10449704;28;20056;-67
2020/12/07 00:47:18;;;;;;;34.63;18.00;;;6.60;99.90;;;;;;10449408;28;20123;-67
2020/12/07 00:52:20;;;;;;;37.80;20.30;;;6.60;99.90;;;;;;10449715;28;20568;-67
2020/12/07 00:57:21;;;;;;;54.47;25.05;;;6.60;99.90;;;;;;10450035;28;20174;-67
2020/12/07 01:02:22;;;;;;;53.20;25.75;;;6.50;99.90;;;;;;10448143;28;20484;-67
2020/12/07 01:07:24;;;;;;;61.17;27.55;;;6.50;99.90;;;;;;10441525;28;20378;-67
2020/12/07 01:12:25;;;;;;;31.48;16.25;;;6.40;99.90;;;;;;10435432;28;20068;-67
2020/12/07 01:17:27;;;;;;;43.15;22.05;;;6.40;99.90;;;;;;10424491;28;20045;-67
2020/12/07 01:22:29;;;;;;;50.65;22.88;;;6.40;99.90;;;;;;10441111;28;20056;-67
2020/12/07 01:27:32;;;;;;;31.65;17.25;;;6.40;99.90;;;;;;10449393;28;20260;-67
2020/12/07 01:32:34;;;;;;;49.10;22.60;;;6.40;99.90;;;;;;10449174;28;20077;-67
2020/12/07 01:37:36;;;;;;;41.92;20.38;;;6.50;99.90;;;;;;10428174;28;20075;-67
2020/12/07 01:42:38;;;;;;;34.72;18.38;;;6.50;99.90;;;;;;10449564;28;20041;-67
2020/12/07 01:47:40;;;;;;;47.40;22.52;;;6.50;99.90;;;;;;10451843;28;20160;-67
2020/12/07 01:52:42;;;;;;;36.30;18.80;;;6.40;99.90;;;;;;10458260;28;20088;-67
2020/12/07 01:57:43;;;;;;;29.75;15.68;;;6.30;99.90;;;;;;10457664;28;20128;-67
2020/12/07 02:02:45;;;;;;;31.20;16.55;;;6.30;99.90;;;;;;10457521;28;20056;-67
2020/12/07 02:07:46;;;;;;;24.90;13.68;;;6.30;99.90;;;;;;10455626;28;20099;-67
2020/12/07 02:12:48;;;;;;;17.98;11.52;;;6.20;99.90;;;;;;10457920;28;20135;-67
2020/12/07 02:17:49;;;;;;;12.07;8.27;;;6.20;99.90;;;;;;10457648;28;20067;-66
2020/12/07 02:22:51;;;;;;;17.08;11.10;;;6.20;99.90;;;;;;10457246;28;20098;-67
2020/12/07 02:27:53;;;;;;;19.27;10.48;;;6.20;99.90;;;;;;10439186;28;20418;-67
2020/12/07 02:32:55;;;;;;;18.35;11.40;;;6.20;99.90;;;;;;10455787;28;20041;-67
2020/12/07 02:37:56;;;;;;;10.50;7.70;;;6.10;99.90;;;;;;10439642;28;20048;-67
2020/12/07 02:42:58;;;;;;;13.23;9.02;;;6.10;99.90;;;;;;10456163;28;20489;-67
2020/12/07 02:47:59;;;;;;;11.73;8.43;;;6.10;99.90;;;;;;10454671;28;20076;-67
2020/12/07 02:53:01;;;;;;;12.13;8.05;;;6.10;99.90;;;;;;10456464;28;20088;-67
2020/12/07 02:58:02;;;;;;;11.32;8.02;;;6.10;99.90;;;;;;10470155;28;20132;-67
2020/12/07 03:03:04;;;;;;;11.15;7.80;;;6.10;99.90;;;;;;10454606;28;20139;-67
2020/12/07 03:08:05;;;;;;;10.48;7.72;;;6.10;99.90;;;;;;10469388;28;20063;-67
2020/12/07 03:13:06;;;;;;;11.55;8.77;;;6.10;99.90;;;;;;10455506;28;20489;-67
2020/12/07 03:18:08;;;;;;;11.18;8.20;;;6.10;99.90;;;;;;10454850;28;20041;-67
2020/12/07 03:23:09;;;;;;;12.18;7.97;;;6.10;99.90;;;;;;10454813;28;20049;-67
2020/12/07 03:28:11;;;;;;;12.05;8.20;;;6.10;99.90;;;;;;10454599;28;20076;-67
2020/12/07 03:33:12;;;;;;;11.45;7.90;;;6.00;99.90;;;;;;10453666;28;20099;-67
2020/12/07 03:38:14;;;;;;;10.00;7.85;;;6.10;99.90;;;;;;10453905;28;20080;-67
2020/12/07 03:43:16;;;;;;;10.80;7.75;;;6.10;99.90;;;;;;10453755;28;20049;-67
2020/12/07 03:48:17;;;;;;;11.38;7.97;;;6.00;99.90;;;;;;10454071;28;20132;-67
2020/12/07 03:53:18;;;;;;;10.40;7.70;;;6.00;99.90;;;;;;10453564;28;20091;-67
2020/12/07 03:58:20;;;;;;;12.52;8.00;;;5.90;99.90;;;;;;10453208;28;20045;-67
2020/12/07 04:03:22;;;;;;;11.40;6.93;;;6.10;99.90;;;;;;10453320;28;20560;-67
2020/12/07 04:08:24;;;;;;;9.98;7.32;;;6.20;99.90;;;;;;10452087;28;20123;-66
2020/12/07 04:13:25;;;;;;;11.07;8.02;;;6.30;99.90;;;;;;10451281;28;20049;-67
2020/12/07 04:18:27;;;;;;;7.97;6.40;;;6.30;99.90;;;;;;10452138;28;20044;-67
2020/12/07 04:23:31;;;;;;;8.35;6.38;;;6.30;99.90;;;;;;10453012;28;20106;-67
2020/12/07 04:28:33;;;;;;;8.13;6.45;;;6.10;99.90;;;;;;10451312;28;20041;-67
2020/12/07 04:33:34;;;;;;;9.55;7.68;;;6.10;99.90;;;;;;10452469;28;20482;-67
2020/12/07 04:38:38;;;;;;;9.20;7.30;;;6.00;99.90;;;;;;10451605;28;20066;-67
2020/12/07 04:43:40;;;;;;;8.88;6.90;;;6.00;99.90;;;;;;10451670;28;20094;-66
2020/12/07 04:48:45;;;;;;;9.27;7.45;;;6.00;99.90;;;;;;10451783;28;20120;-67
2020/12/07 04:53:49;;;;;;;8.18;6.50;;;6.00;99.90;;;;;;10451344;28;20095;-67
2020/12/07 04:58:51;;;;;;;7.40;5.95;;;6.20;99.90;;;;;;10451613;28;20476;-67
2020/12/07 05:03:53;;;;;;;8.23;6.72;;;6.30;99.90;;;;;;10450335;28;20120;-67
2020/12/07 05:08:54;;;;;;;7.63;6.68;;;6.20;99.90;;;;;;10451147;28;20069;-67
2020/12/07 05:14:07;;;;;;;8.18;6.60;;;6.20;99.90;;;;;;10451366;28;20049;-67
2020/12/07 05:19:10;;;;;;;8.48;6.53;;;6.20;99.90;;;;;;10454322;28;20083;-67
2020/12/07 05:24:11;;;;;;;7.78;6.97;;;6.20;99.90;;;;;;10460004;28;20470;-67
2020/12/07 05:29:18;;;;;;;8.85;7.47;;;6.00;99.90;;;;;;10459003;28;20041;-67
2020/12/07 05:34:24;;;;;;;9.88;8.88;;;6.00;99.90;;;;;;10448682;28;20114;-67
2020/12/07 05:39:26;;;;;;;9.80;7.90;;;5.90;99.90;;;;;;10445642;28;20044;-67
2020/12/07 05:44:28;;;;;;;8.75;7.63;;;5.80;99.90;;;;;;10452690;28;20136;-67
2020/12/07 05:49:31;;;;;;;10.05;7.28;;;5.90;99.90;;;;;;10453912;28;20137;-66
2020/12/07 05:54:37;;;;;;;8.32;6.70;;;6.00;99.90;;;;;;10440580;28;20447;-67
2020/12/07 05:59:41;;;;;;;8.30;7.05;;;5.90;99.90;;;;;;10449699;28;20098;-67
2020/12/07 06:04:43;;;;;;;8.02;7.15;;;6.00;99.90;;;;;;10451627;28;20083;-67
2020/12/07 06:09:47;;;;;;;9.30;6.80;;;6.10;99.90;;;;;;10445245;28;20087;-67
2020/12/07 06:14:49;;;;;;;9.85;8.68;;;6.00;99.90;;;;;;10448744;28;20396;-67
2020/12/07 06:19:53;;;;;;;8.40;7.45;;;6.00;99.90;;;;;;10438191;28;20622;-67
2020/12/07 06:24:58;;;;;;;9.73;7.60;;;6.10;99.90;;;;;;10440207;28;20406;-67
2020/12/07 06:30:02;;;;;;;7.82;6.80;;;6.10;99.90;;;;;;10442026;28;20041;-67
2020/12/07 06:35:09;;;;;;;8.25;6.70;;;6.20;99.90;;;;;;10446212;28;20045;-67
2020/12/07 06:40:11;;;;;;;8.18;7.15;;;6.20;99.90;;;;;;10441607;28;20055;-67
2020/12/07 06:45:33;;;;;;;9.63;7.55;;;6.20;99.90;;;;;;10446992;28;20045;-67
2020/12/07 06:50:42;;;;;;;10.65;8.23;;;6.20;99.90;;;;;;10439198;28;20136;-66
2020/12/07 06:55:44;;;;;;;12.85;9.57;;;6.10;99.90;;;;;;10439417;28;20064;-67
2020/12/07 07:00:45;;;;;;;15.32;9.48;;;6.00;99.90;;;;;;10437005;28;20049;-66
2020/12/07 07:05:46;;;;;;;11.23;8.82;;;6.10;99.90;;;;;;10436672;28;22346;-66
2020/12/07 07:10:48;;;;;;;14.32;9.70;;;6.10;99.90;;;;;;10433347;28;20132;-66
2020/12/07 07:15:50;;;;;;;14.30;9.77;;;6.20;99.90;;;;;;10438637;28;20401;-67
2020/12/07 07:20:51;;;;;;;14.45;9.13;;;6.30;99.90;;;;;;10438770;28;20119;-66
2020/12/07 07:25:58;;;;;;;14.68;9.85;;;6.30;99.90;;;;;;10428907;28;20034;-67
2020/12/07 07:31:04;;;;;;;12.82;9.45;;;6.30;99.90;;;;;;10444441;28;20481;-67
2020/12/07 07:36:06;;;;;;;17.05;10.57;;;6.30;99.90;;;;;;10437891;28;20052;-67
2020/12/07 07:41:22;;;;;;;15.15;9.85;;;6.40;99.90;;;;;;10439662;28;20128;-67
2020/12/07 07:46:24;;;;;;;12.95;9.40;;;6.30;99.90;;;;;;10439914;28;20080;-67
2020/12/07 08:17:53;;;;;;;11.48;8.55;;;6.20;99.90;;;;;;10440593;28;20056;-67
2020/12/07 08:23:03;;;;;;;13.68;9.85;;;6.10;99.90;;;;;;10441464;28;20217;-66
2020/12/07 08:28:32;;;;;;;13.30;10.35;;;6.20;99.90;;;;;;10433905;28;20044;-67
2020/12/07 08:33:41;;;;;;;13.18;10.35;;;6.30;99.90;;;;;;10433199;28;20053;-67
2020/12/07 08:38:45;;;;;;;16.23;10.80;;;6.30;99.90;;;;;;10442187;28;20040;-67
2020/12/07 08:43:52;;;;;;;13.15;10.05;;;6.30;99.90;;;;;;10436859;28;20467;-67
2020/12/07 08:48:53;;;;;;;15.75;10.02;;;6.40;99.90;;;;;;10436344;28;20045;-67
2020/12/07 08:53:56;;;;;;;18.58;11.23;;;6.40;99.90;;;;;;10438789;28;20136;-66
2020/12/07 08:58:57;;;;;;;13.80;10.68;;;6.30;99.90;;;;;;10439656;28;20573;-67
2020/12/07 09:04:02;;;;;;;13.18;9.13;;;6.40;99.90;;;;;;10441399;28;20051;-67
2020/12/07 09:09:03;;;;;;;11.82;9.45;;;6.50;99.90;;;;;;10438151;28;20049;-66
2020/12/07 09:14:06;;;;;;;10.80;8.32;;;6.70;99.90;;;;;;10438961;28;20466;-66
2020/12/07 09:19:09;;;;;;;13.38;9.32;;;6.90;99.90;;;;;;10438196;28;20060;-67
2020/12/07 09:24:10;;;;;;;11.38;9.05;;;6.80;99.90;;;;;;10435255;28;20055;-67
2020/12/07 09:29:11;;;;;;;9.88;7.53;;;6.80;99.90;;;;;;10443420;28;20048;-67
2020/12/07 09:34:13;;;;;;;9.52;7.45;;;6.70;99.90;;;;;;10439417;28;20049;-67
2020/12/07 09:39:14;;;;;;;9.82;7.57;;;6.70;99.90;;;;;;10437542;28;20053;-67
2020/12/07 09:44:16;;;;;;;10.20;7.22;;;6.80;99.90;;;;;;10436541;28;20049;-67
2020/12/07 09:49:17;;;;;;;9.40;7.18;;;6.80;99.90;;;;;;10438213;28;20065;-67
2020/12/07 09:54:19;;;;;;;9.23;7.10;;;7.00;99.40;;;;;;10442954;28;20129;-67
2020/12/07 09:59:20;;;;;;;10.35;7.28;;;7.10;99.70;;;;;;10438557;28;20152;-67
2020/12/07 10:04:22;;;;;;;8.27;6.47;;;7.30;99.20;;;;;;10444263;28;20052;-72
2020/12/07 10:09:23;;;;;;;7.95;6.18;;;7.40;98.80;;;;;;10449631;28;20131;-72
2020/12/07 10:14:25;;;;;;;7.28;5.82;;;7.40;98.90;;;;;;10449206;28;20048;-72
2020/12/07 10:19:27;;;;;;;7.50;5.38;;;7.70;98.60;;;;;;10444726;28;20052;-71
2020/12/07 10:24:29;;;;;;;7.78;5.18;;;7.80;98.10;;;;;;10448628;28;20416;-71
2020/12/07 10:29:30;;;;;;;7.82;5.47;;;7.80;97.70;;;;;;10440564;28;20132;-72
2020/12/07 10:34:31;;;;;;;7.20;5.22;;;8.00;98.00;;;;;;10448016;28;20045;-72
2020/12/07 10:39:33;;;;;;;7.30;5.55;;;8.10;97.40;;;;;;10446196;28;20052;-72
2020/12/07 10:44:34;;;;;;;8.18;6.10;;;8.20;96.60;;;;;;10446845;28;20041;-72
2020/12/07 10:49:39;;;;;;;8.43;5.55;;;8.00;97.30;;;;;;10445759;28;20045;-72
2020/12/07 10:54:40;;;;;;;8.57;5.25;;;8.20;97.30;;;;;;10448983;28;20399;-72
2020/12/07 10:59:42;;;;;;;6.80;4.70;;;8.30;97.10;;;;;;10447799;28;20139;-72
2020/12/07 11:04:43;;;;;;;6.13;4.50;;;8.50;96.80;;;;;;10444893;28;20426;-72
2020/12/07 11:09:44;;;;;;;6.70;4.90;;;8.60;96.40;;;;;;10446426;28;20044;-72
2020/12/07 11:14:46;;;;;;;5.10;3.90;;;8.70;96.50;;;;;;10445444;28;20098;-72
2020/12/07 11:19:47;;;;;;;5.28;3.80;;;8.70;96.40;;;;;;10440040;28;20511;-72
2020/12/07 11:24:49;;;;;;;6.78;3.92;;;8.80;96.20;;;;;;10442011;28;20141;-72
2020/12/07 11:29:54;;;;;;;5.55;3.67;;;9.00;96.10;;;;;;10444246;28;20056;-72
2020/12/07 11:34:55;;;;;;;4.80;3.13;;;9.10;95.70;;;;;;10445203;28;20052;-72
2020/12/07 11:40:15;;;;;;;5.53;3.67;;;9.10;95.60;;;;;;10445793;28;20079;-72
2020/12/07 11:45:16;;;;;;;7.47;3.42;;;9.10;95.20;;;;;;10440354;28;20053;-71
2020/12/07 11:50:18;;;;;;;4.78;2.90;;;9.00;95.00;;;;;;10442869;28;20271;-72
2020/12/07 11:55:19;;;;;;;5.28;3.50;;;9.00;95.10;;;;;;10442995;28;20132;-71
2020/12/07 12:00:21;;;;;;;5.68;3.40;;;8.90;95.10;;;;;;10445088;28;20137;-72
2020/12/07 12:05:25;;;;;;;5.60;2.90;;;8.80;95.10;;;;;;10443789;28;20084;-72
2020/12/07 12:10:26;;;;;;;4.63;3.05;;;8.80;95.30;;;;;;10435525;28;20211;-72
2020/12/07 12:15:28;;;;;;;9.55;3.10;;;8.80;94.90;;;;;;10445991;28;20037;-72
2020/12/07 12:20:30;;;;;;;5.65;3.05;;;8.70;94.80;;;;;;10443318;28;20120;-72
2020/12/07 12:25:32;;;;;;;8.73;3.08;;;8.60;95.30;;;;;;10441550;28;20052;-75
2020/12/07 12:30:33;;;;;;;5.22;3.38;;;8.80;95.60;;;;;;10436412;28;20039;-74
2020/12/07 12:35:35;;;;;;;6.35;3.28;;;8.80;95.10;;;;;;10434391;28;20132;-74
2020/12/07 12:40:36;;;;;;;4.63;2.90;;;8.80;94.70;;;;;;10446738;28;20047;-74
2020/12/07 12:45:38;;;;;;;6.90;5.40;;;8.70;94.70;;;;;;10440187;28;20045;-74
2020/12/07 12:50:40;;;;;;;5.07;3.80;;;8.60;94.70;;;;;;10434305;28;20568;-73
2020/12/07 12:55:41;;;;;;;5.43;4.30;;;8.60;95.00;;;;;;10440149;28;20081;-74
2020/12/07 13:00:45;;;;;;;6.22;3.78;;;8.70;95.10;;;;;;10438564;28;20057;-74
2020/12/07 13:05:47;;;;;;;6.15;3.30;;;8.80;94.90;;;;;;10445035;28;20053;-74
2020/12/07 13:10:49;;;;;;;4.85;2.70;;;8.80;94.70;;;;;;10445380;28;20511;-74
2020/12/07 13:15:58;;;;;;;6.20;2.97;;;8.90;94.50;;;;;;10436152;28;20041;-74
2020/12/07 13:21:09;;;;;;;4.70;3.50;;;8.90;94.20;;;;;;10457737;28;20053;-74
2020/12/07 13:31:39;;;;;;;5.05;3.10;;;9.10;94.10;;;;;;10425179;28;20103;-73
2020/12/07 13:36:44;;;;;;;4.90;3.00;;;9.00;93.40;;;;;;10443411;28;20080;-74
2020/12/07 13:41:46;;;;;;;4.40;3.10;;;8.90;93.50;;;;;;10435605;28;20547;-74
2020/12/07 13:46:48;;;;;;;4.80;2.90;;;8.90;93.80;;;;;;10447238;28;20064;-74
2020/12/07 13:51:50;;;;;;;4.90;3.15;;;8.80;93.90;;;;;;10448572;28;20102;-74
2020/12/07 13:56:51;;;;;;;5.78;3.47;;;8.70;94.90;;;;;;10446815;28;20140;-74
2020/12/07 14:01:52;;;;;;;6.53;3.10;;;8.60;94.90;;;;;;10448863;28;20075;-74
2020/12/07 14:06:54;;;;;;;4.40;2.53;;;8.50;95.10;;;;;;10453482;28;20087;-74
2020/12/07 14:11:56;;;;;;;4.38;2.70;;;8.40;95.10;;;;;;10450558;28;20422;-74
2020/12/07 14:17:04;;;;;;;4.63;2.83;;;8.30;95.10;;;;;;10448866;28;20401;-74
2020/12/07 14:42:53;;;;;;;7.70;3.90;;;7.60;96.10;;;;;;10448321;28;20224;-73
2020/12/07 14:48:07;;;;;;;5.22;3.17;;;7.60;96.90;;;;;;10435071;28;20098;-74
2020/12/07 14:53:15;;;;;;;6.90;3.15;;;7.70;97.10;;;;;;10448287;28;20458;-74
2020/12/07 15:09:49;;;;;;;5.47;3.58;;;7.90;97.20;;;;;;10417191;28;20083;-72
2020/12/07 15:14:33;;;;;;;6.55;4.47;;;7.80;96.80;;;;;;10438094;28;20087;-71
2020/12/07 15:19:35;;;;;;;7.65;5.30;;;7.80;97.40;;;;;;10444175;28;20120;-71
2020/12/07 15:24:36;;;;;;;8.63;5.43;;;7.70;97.80;;;;;;10441692;28;20124;-71
2020/12/07 15:29:38;;;;;;;8.32;6.00;;;7.80;97.40;;;;;;10448003;28;20073;-71
2020/12/07 15:34:42;;;;;;;9.15;6.88;;;7.70;97.40;;;;;;10448188;28;20099;-71
2020/12/07 15:39:44;;;;;;;13.48;7.60;;;7.60;97.70;;;;;;10447365;28;20124;-71
2020/12/07 15:44:45;;;;;;;10.80;7.80;;;7.70;98.00;;;;;;10460590;28;20128;-71
2020/12/07 15:49:47;;;;;;;10.82;7.65;;;7.60;98.00;;;;;;10446018;28;20081;-71
2020/12/07 15:54:48;;;;;;;11.23;8.13;;;7.60;97.80;;;;;;10443938;28;20344;-71
2020/12/07 15:59:50;;;;;;;12.70;7.82;;;7.70;97.50;;;;;;10443805;28;20124;-71
2020/12/07 16:04:52;;;;;;;11.13;8.13;;;7.70;97.60;;;;;;10440517;28;20053;-72
2020/12/07 16:09:54;;;;;;;14.27;9.75;;;7.60;97.60;;;;;;10441418;28;20076;-72
2020/12/07 16:14:56;;;;;;;12.15;8.27;;;7.50;97.70;;;;;;10436817;28;20139;-73
2020/12/07 16:19:57;;;;;;;11.65;8.68;;;7.40;97.50;;;;;;10441054;28;20091;-73
2020/12/07 16:24:59;;;;;;;12.63;9.20;;;7.40;97.60;;;;;;10445583;28;20127;-73
2020/12/07 16:30:01;;;;;;;14.25;9.20;;;7.30;97.50;;;;;;10438861;28;20083;-73
2020/12/07 16:35:05;;;;;;;13.45;9.23;;;7.20;97.50;;;;;;10432901;28;20081;-73
2020/12/07 16:40:06;;;;;;;10.73;8.40;;;7.20;97.80;;;;;;10442026;28;20053;-73
2020/12/07 16:45:08;;;;;;;15.45;8.63;;;7.20;97.70;;;;;;10442389;28;20057;-73
2020/12/07 16:50:10;;;;;;;12.27;8.50;;;7.10;97.80;;;;;;10437325;28;20072;-73
2020/12/07 16:55:11;;;;;;;13.63;8.18;;;7.10;97.80;;;;;;10439854;28;20073;-72
2020/12/07 17:00:14;;;;;;;11.25;8.57;;;7.00;97.70;;;;;;10458833;28;20514;-73
2020/12/07 17:05:17;;;;;;;12.80;8.52;;;7.00;97.90;;;;;;10433958;28;20076;-68
2020/12/07 17:10:18;;;;;;;17.23;11.48;;;7.00;97.30;;;;;;10447265;28;20560;-68
2020/12/07 17:15:20;;;;;;;12.43;9.57;;;7.10;97.30;;;;;;10450069;28;20048;-68
2020/12/07 17:20:21;;;;;;;14.68;11.00;;;7.10;97.20;;;;;;10453170;28;20466;-68
2020/12/07 17:25:25;;;;;;;12.70;9.43;;;7.10;97.50;;;;;;10453050;28;20099;-68
2020/12/07 17:30:27;;;;;;;13.52;9.73;;;7.10;97.20;;;;;;10450476;28;20481;-68
2020/12/07 17:35:28;;;;;;;11.63;8.63;;;7.10;97.10;;;;;;10443107;28;20417;-68
2020/12/07 17:40:30;;;;;;;13.82;9.43;;;7.10;97.10;;;;;;10455223;28;20045;-68
2020/12/07 17:45:32;;;;;;;12.20;8.43;;;7.10;96.80;;;;;;10437072;28;20140;-68
2020/12/07 17:50:33;;;;;;;14.20;8.75;;;7.00;96.40;;;;;;10446524;28;20143;-68
2020/12/07 17:55:35;;;;;;;10.55;8.20;;;7.00;96.60;;;;;;10436345;28;20144;-68
2020/12/07 18:00:39;;;;;;;10.70;7.80;;;7.00;96.50;;;;;;10447475;28;20041;-68
2020/12/07 18:05:40;;;;;;;11.80;8.68;;;7.00;96.30;;;;;;10448407;28;20132;-68
2020/12/07 18:10:42;;;;;;;12.35;8.93;;;7.00;96.20;;;;;;10447121;28;20137;-68
2020/12/07 18:15:43;;;;;;;13.30;10.02;;;7.10;96.00;;;;;;10438375;28;20065;-68
2020/12/07 18:20:46;;;;;;;13.43;10.15;;;7.00;95.60;;;;;;10446148;28;20139;-68
2020/12/07 18:25:47;;;;;;;14.35;10.70;;;7.00;95.90;;;;;;10444123;28;20124;-68
2020/12/07 18:31:06;;;;;;;16.20;11.20;;;7.00;96.00;;;;;;10441133;28;20041;-68
2020/12/07 18:36:08;;;;;;;13.40;10.18;;;7.00;96.00;;;;;;10442953;28;20118;-68
2020/12/07 18:41:09;;;;;;;15.63;11.73;;;6.90;95.70;;;;;;10450136;28;20049;-68
2020/12/07 18:46:11;;;;;;;18.27;12.65;;;6.70;95.60;;;;;;10452401;28;20068;-68
2020/12/07 18:51:14;;;;;;;18.48;13.27;;;6.50;95.60;;;;;;10446476;28;20560;-68
2020/12/07 18:56:16;;;;;;;21.75;13.70;;;6.30;96.00;;;;;;10445255;28;20064;-68
2020/12/07 19:01:18;;;;;;;18.02;13.40;;;6.20;96.10;;;;;;10443230;28;20126;-68
2020/12/07 19:06:20;;;;;;;19.52;13.82;;;6.00;96.60;;;;;;10446139;28;20138;-68
2020/12/07 19:11:21;;;;;;;18.77;13.50;;;6.00;96.70;;;;;;10439370;28;20455;-68
2020/12/07 19:16:26;;;;;;;18.52;13.05;;;6.00;96.40;;;;;;10444906;28;20468;-68
2020/12/07 19:21:28;;;;;;;19.63;13.63;;;6.00;96.80;;;;;;10433166;28;20482;-68
2020/12/07 19:26:29;;;;;;;21.63;15.30;;;6.00;97.00;;;;;;10448228;28;20524;-68
2020/12/07 19:31:33;;;;;;;21.55;14.85;;;6.00;97.20;;;;;;10449073;28;20083;-68
2020/12/07 19:36:34;;;;;;;22.83;14.55;;;6.00;97.70;;;;;;10437433;28;20073;-68
2020/12/07 19:41:37;;;;;;;19.27;13.88;;;6.10;97.60;;;;;;10443882;28;20452;-68
2020/12/07 19:46:39;;;;;;;19.52;14.38;;;6.10;97.50;;;;;;10444006;28;20076;-68
2020/12/07 19:51:40;;;;;;;19.85;14.27;;;6.20;97.10;;;;;;10449723;28;20135;-68
2020/12/07 19:56:42;;;;;;;20.40;13.63;;;6.30;97.40;;;;;;10448267;28;20048;-68
2020/12/07 20:01:50;;;;;;;18.95;13.50;;;6.30;97.40;;;;;;10447645;28;20080;-68
2020/12/07 20:06:52;;;;;;;18.95;13.98;;;6.30;97.00;;;;;;10437998;28;20068;-68
2020/12/07 20:11:53;;;;;;;18.80;13.32;;;6.10;96.80;;;;;;10435333;28;20467;-68
2020/12/07 20:16:55;;;;;;;21.90;13.50;;;6.10;97.10;;;;;;10447403;28;20561;-68
2020/12/07 20:21:56;;;;;;;21.88;13.73;;;6.00;97.20;;;;;;10464135;28;20553;-68
2020/12/07 20:26:58;;;;;;;21.52;15.57;;;6.00;97.80;;;;;;10464350;28;20401;-68
2020/12/07 20:31:59;;;;;;;32.28;21.65;;;6.20;97.80;;;;;;10451772;28;20489;-68
2020/12/07 20:37:01;;;;;;;29.55;19.52;;;6.30;98.00;;;;;;10449322;28;20045;-68
2020/12/07 20:42:04;;;;;;;28.27;19.10;;;6.30;98.00;;;;;;10451063;28;20064;-68
2020/12/07 20:47:06;;;;;;;25.20;17.80;;;6.20;97.80;;;;;;10451693;28;20084;-68
2020/12/07 20:52:09;;;;;;;21.58;15.55;;;6.20;97.80;;;;;;10450930;28;20501;-68
2020/12/07 20:57:11;;;;;;;24.65;17.95;;;6.30;97.60;;;;;;10451644;28;20080;-68
2020/12/07 21:02:13;;;;;;;26.17;17.85;;;6.30;97.60;;;;;;10450425;28;20570;-68
2020/12/07 21:07:15;;;;;;;25.13;18.25;;;6.20;97.90;;;;;;10451489;28;20489;-68
2020/12/07 21:12:17;;;;;;;30.85;20.63;;;6.20;98.00;;;;;;10449763;28;20492;-68
2020/12/07 21:17:19;;;;;;;29.80;18.85;;;6.10;97.70;;;;;;10425529;28;20458;-68
2020/12/07 21:22:20;;;;;;;24.60;16.70;;;6.10;97.90;;;;;;10433445;28;20083;-68
2020/12/07 21:27:22;;;;;;;28.80;19.23;;;6.10;98.20;;;;;;10450360;28;20077;-68
2020/12/07 21:32:24;;;;;;;27.65;19.13;;;6.00;97.90;;;;;;10450892;28;20048;-68
2020/12/07 21:37:26;;;;;;;29.10;18.77;;;6.00;97.90;;;;;;10450591;28;20051;-68
2020/12/07 21:42:27;;;;;;;24.73;17.85;;;6.10;98.20;;;;;;10451521;28;20060;-68
2020/12/07 21:47:29;;;;;;;27.98;18.58;;;6.00;98.30;;;;;;10448945;28;20083;-68
2020/12/07 21:52:30;;;;;;;30.52;20.13;;;5.90;98.70;;;;;;10439393;28;20088;-68
2020/12/07 21:57:32;;;;;;;26.65;19.13;;;6.10;98.80;;;;;;10439373;28;20129;-68
2020/12/07 22:02:34;;;;;;;27.55;19.55;;;6.10;98.70;;;;;;10455376;28;20468;-68
2020/12/07 22:07:36;;;;;;;28.33;19.60;;;6.00;98.60;;;;;;10454633;28;20077;-68
2020/12/07 22:12:40;;;;;;;27.08;19.85;;;6.10;98.70;;;;;;10455041;28;20465;-68
2020/12/07 22:17:41;;;;;;;28.38;19.67;;;6.10;98.60;;;;;;10455126;28;20129;-68
2020/12/07 22:22:43;;;;;;;29.70;20.88;;;6.10;98.90;;;;;;10419443;28;20136;-68
2020/12/07 22:27:45;;;;;;;31.00;21.60;;;6.20;98.90;;;;;;10422270;28;20565;-68
2020/12/07 22:32:46;;;;;;;28.63;19.90;;;6.20;98.70;;;;;;10456259;28;20128;-69
2020/12/07 22:37:48;;;;;;;34.50;25.00;;;6.10;98.50;;;;;;10455676;28;20040;-68
2020/12/07 22:42:49;;;;;;;40.95;28.38;;;6.10;98.70;;;;;;10456006;28;20049;-68
2020/12/07 22:47:51;;;;;;;36.13;26.40;;;6.10;98.90;;;;;;10437954;28;20036;-68
2020/12/07 22:52:55;;;;;;;26.73;20.35;;;6.20;99.00;;;;;;10455430;28;20528;-68
2020/12/07 22:57:56;;;;;;;35.38;23.83;;;6.30;98.70;;;;;;10454649;28;20078;-68
2020/12/07 23:02:58;;;;;;;37.85;26.05;;;6.30;98.50;;;;;;10454840;28;20094;-68
2020/12/07 23:08:00;;;;;;;33.15;23.23;;;6.40;98.40;;;;;;10469776;28;20468;-68
2020/12/07 23:13:02;;;;;;;35.92;24.45;;;6.40;98.30;;;;;;10453965;28;20360;-68
2020/12/07 23:18:03;;;;;;;39.42;25.75;;;6.40;98.40;;;;;;10454551;28;20095;-68
2020/12/07 23:23:05;;;;;;;36.38;25.42;;;6.40;98.60;;;;;;10454299;28;20084;-68
2020/12/07 23:28:07;;;;;;;36.33;24.48;;;6.20;98.50;;;;;;10453509;28;20049;-68
2020/12/07 23:33:09;;;;;;;37.72;25.00;;;6.20;98.60;;;;;;10437510;28;20080;-68
2020/12/07 23:38:12;;;;;;;36.65;24.70;;;6.20;99.00;;;;;;10452643;28;20088;-68
2020/12/07 23:43:14;;;;;;;33.47;22.63;;;6.20;98.80;;;;;;10438527;28;20124;-68
2020/12/07 23:48:15;;;;;;;31.95;22.73;;;6.30;98.70;;;;;;10439012;28;20463;-68
2020/12/07 23:53:16;;;;;;;31.05;22.10;;;6.30;98.70;;;;;;10452585;28;20092;-68
2020/12/07 23:58:18;;;;;;;39.42;25.45;;;6.30;98.60;;;;;;10452893;28;20457;-68
